Aracu, Brazil
Current Conditions -  °F | °C
As of 2:00 PM on Friday 19 Dec 2014 (Local Time) from SBGO Reporting Station
Scattered Clouds Scattered Clouds  
Wind Chill: 84°   Ceiling: Unl
Heat Index: 85°   Visibility: 6mi
Dew Point: 63°   Wind: 15mph
Humidity: 48%   Direction: 340°NNW
Pressure: 29.91"   Gusts: NA
Location:  16.36°S, 49.68°W
Report Text: SBGO 191600Z 34013KT 9999 SCT030 FEW035TCU 29/17 Q1013
Loading
Personal Weather Stations






























Interactive Weather Map New forecast layout! Learn more

10-Day Weather Forecast

Advertisements
Track Severe Weather on mobile